sensor_id;sensor_type;location;lat;lon;timestamp;pressure;altitude;pressure_sealevel;temperature;humidity
17505;BME280;8870;50.950;11.762;2022-07-29T00:04:56;98406.38;;;18.06;75.57
17505;BME280;8870;50.950;11.762;2022-07-29T00:10:04;98410.16;;;17.98;77.03
17505;BME280;8870;50.950;11.762;2022-07-29T00:15:10;98385.38;;;17.93;77.29
17505;BME280;8870;50.950;11.762;2022-07-29T00:20:15;98388.75;;;17.89;77.97
17505;BME280;8870;50.950;11.762;2022-07-29T00:25:23;98400.28;;;17.84;79.05
17505;BME280;8870;50.950;11.762;2022-07-29T00:30:28;98387.69;;;17.76;79.43
17505;BME280;8870;50.950;11.762;2022-07-29T00:35:33;98388.09;;;17.73;79.92
17505;BME280;8870;50.950;11.762;2022-07-29T00:40:52;98387.91;;;17.68;80.56
17505;BME280;8870;50.950;11.762;2022-07-29T00:45:58;98378.25;;;17.65;80.83
17505;BME280;8870;50.950;11.762;2022-07-29T00:51:04;98372.38;;;17.62;81.35
17505;BME280;8870;50.950;11.762;2022-07-29T00:56:12;98381.59;;;17.61;81.15
17505;BME280;8870;50.950;11.762;2022-07-29T01:01:17;98379.06;;;17.52;84.28
17505;BME280;8870;50.950;11.762;2022-07-29T01:06:23;98372.34;;;17.48;84.39
17505;BME280;8870;50.950;11.762;2022-07-29T01:11:32;98366.50;;;17.45;85.75
17505;BME280;8870;50.950;11.762;2022-07-29T01:16:47;98367.75;;;17.42;85.09
17505;BME280;8870;50.950;11.762;2022-07-29T01:21:57;98367.34;;;17.38;86.67
17505;BME280;8870;50.950;11.762;2022-07-29T01:27:20;98367.72;;;17.35;87.83
17505;BME280;8870;50.950;11.762;2022-07-29T01:32:36;98365.00;;;17.29;89.19
17505;BME280;8870;50.950;11.762;2022-07-29T01:37:45;98366.88;;;17.21;89.63
17505;BME280;8870;50.950;11.762;2022-07-29T01:42:55;98360.16;;;17.17;90.70
17505;BME280;8870;50.950;11.762;2022-07-29T01:48:10;98343.59;;;17.12;92.70
17505;BME280;8870;50.950;11.762;2022-07-29T01:53:23;98343.78;;;17.04;94.65
17505;BME280;8870;50.950;11.762;2022-07-29T01:58:40;98332.25;;;16.95;96.61
17505;BME280;8870;50.950;11.762;2022-07-29T02:03:49;98327.81;;;16.87;99.00
17505;BME280;8870;50.950;11.762;2022-07-29T02:08:55;98325.66;;;16.76;100.00
17505;BME280;8870;50.950;11.762;2022-07-29T02:14:01;98321.03;;;16.70;100.00
17505;BME280;8870;50.950;11.762;2022-07-29T02:19:09;98323.13;;;16.68;100.00
17505;BME280;8870;50.950;11.762;2022-07-29T02:24:18;98341.31;;;16.60;100.00
17505;BME280;8870;50.950;11.762;2022-07-29T02:29:25;98336.88;;;16.53;100.00
17505;BME280;8870;50.950;11.762;2022-07-29T02:34:34;98345.22;;;16.44;100.00
17505;BME280;8870;50.950;11.762;2022-07-29T02:39:42;98342.19;;;16.32;100.00
17505;BME280;8870;50.950;11.762;2022-07-29T02:44:48;98336.31;;;16.29;100.00
17505;BME280;8870;50.950;11.762;2022-07-29T02:50:00;98335.91;;;16.25;100.00
17505;BME280;8870;50.950;11.762;2022-07-29T02:55:12;98336.28;;;16.22;100.00
17505;BME280;8870;50.950;11.762;2022-07-29T03:00:21;98331.84;;;16.14;100.00
17505;BME280;8870;50.950;11.762;2022-07-29T03:05:29;98331.81;;;16.08;100.00
17505;BME280;8870;50.950;11.762;2022-07-29T03:10:35;98325.28;;;16.02;100.00
17505;BME280;8870;50.950;11.762;2022-07-29T03:15:42;98316.06;;;15.96;100.00
17505;BME280;8870;50.950;11.762;2022-07-29T03:20:51;98328.13;;;15.87;100.00
17505;BME280;8870;50.950;11.762;2022-07-29T03:25:57;98328.41;;;15.77;100.00
17505;BME280;8870;50.950;11.762;2022-07-29T03:31:02;98337.16;;;15.72;100.00
17505;BME280;8870;50.950;11.762;2022-07-29T03:36:12;98335.91;;;15.68;100.00
17505;BME280;8870;50.950;11.762;2022-07-29T03:41:18;98333.78;;;15.64;100.00
17505;BME280;8870;50.950;11.762;2022-07-29T03:46:26;98335.19;;;15.60;100.00
17505;BME280;8870;50.950;11.762;2022-07-29T03:51:36;98332.03;;;15.56;100.00
17505;BME280;8870;50.950;11.762;2022-07-29T03:56:43;98342.25;;;15.54;100.00
17505;BME280;8870;50.950;11.762;2022-07-29T04:01:50;98344.31;;;15.52;100.00
17505;BME280;8870;50.950;11.762;2022-07-29T04:06:59;98352.44;;;15.52;100.00
17505;BME280;8870;50.950;11.762;2022-07-29T04:12:05;98349.28;;;15.48;100.00
17505;BME280;8870;50.950;11.762;2022-07-29T04:17:10;98348.44;;;15.48;100.00
17505;BME280;8870;50.950;11.762;2022-07-29T04:22:18;98346.97;;;15.45;100.00
17505;BME280;8870;50.950;11.762;2022-07-29T04:27:23;98353.63;;;15.43;100.00
17505;BME280;8870;50.950;11.762;2022-07-29T04:32:29;98347.34;;;15.42;100.00
17505;BME280;8870;50.950;11.762;2022-07-29T04:37:37;98357.16;;;15.43;100.00
17505;BME280;8870;50.950;11.762;2022-07-29T04:42:42;98360.28;;;15.40;100.00
17505;BME280;8870;50.950;11.762;2022-07-29T04:47:50;98361.94;;;15.41;100.00
17505;BME280;8870;50.950;11.762;2022-07-29T04:52:58;98352.97;;;15.40;100.00
17505;BME280;8870;50.950;11.762;2022-07-29T04:58:03;98344.44;;;15.44;100.00
17505;BME280;8870;50.950;11.762;2022-07-29T05:03:08;98332.41;;;15.53;100.00
17505;BME280;8870;50.950;11.762;2022-07-29T05:08:16;98337.53;;;15.63;100.00
17505;BME280;8870;50.950;11.762;2022-07-29T05:13:21;98344.47;;;15.72;100.00
17505;BME280;8870;50.950;11.762;2022-07-29T05:18:26;98339.75;;;15.81;100.00
17505;BME280;8870;50.950;11.762;2022-07-29T05:23:33;98345.06;;;15.89;100.00
17505;BME280;8870;50.950;11.762;2022-07-29T05:28:40;98349.69;;;15.95;100.00
17505;BME280;8870;50.950;11.762;2022-07-29T05:33:45;98347.03;;;16.02;100.00
17505;BME280;8870;50.950;11.762;2022-07-29T05:38:53;98355.88;;;16.11;100.00
17505;BME280;8870;50.950;11.762;2022-07-29T05:43:59;98346.09;;;16.16;100.00
17505;BME280;8870;50.950;11.762;2022-07-29T05:49:04;98353.88;;;16.26;100.00
17505;BME280;8870;50.950;11.762;2022-07-29T05:54:12;98342.22;;;16.39;100.00
17505;BME280;8870;50.950;11.762;2022-07-29T05:59:18;98338.31;;;16.48;100.00
17505;BME280;8870;50.950;11.762;2022-07-29T06:04:28;98337.72;;;16.60;100.00
17505;BME280;8870;50.950;11.762;2022-07-29T06:09:35;98341.13;;;16.69;100.00
17505;BME280;8870;50.950;11.762;2022-07-29T06:14:41;98335.72;;;16.75;100.00
17505;BME280;8870;50.950;11.762;2022-07-29T06:19:46;98335.75;;;16.82;100.00
17505;BME280;8870;50.950;11.762;2022-07-29T06:24:54;98340.97;;;16.90;100.00
17505;BME280;8870;50.950;11.762;2022-07-29T06:29:59;98353.00;;;17.03;100.00
17505;BME280;8870;50.950;11.762;2022-07-29T06:35:07;98353.03;;;17.16;100.00
17505;BME280;8870;50.950;11.762;2022-07-29T06:40:35;98361.88;;;17.32;100.00
17505;BME280;8870;50.950;11.762;2022-07-29T06:45:53;98365.03;;;17.49;100.00
17505;BME280;8870;50.950;11.762;2022-07-29T06:50:58;98357.50;;;17.64;100.00
17505;BME280;8870;50.950;11.762;2022-07-29T06:56:07;98359.41;;;17.84;100.00
17505;BME280;8870;50.950;11.762;2022-07-29T07:01:14;98375.34;;;18.00;100.00
17505;BME280;8870;50.950;11.762;2022-07-29T07:06:19;98368.63;;;18.16;100.00
17505;BME280;8870;50.950;11.762;2022-07-29T07:11:27;98371.13;;;18.38;100.00
17505;BME280;8870;50.950;11.762;2022-07-29T07:16:33;98361.00;;;18.52;100.00
17505;BME280;8870;50.950;11.762;2022-07-29T07:21:38;98355.06;;;18.75;100.00
17505;BME280;8870;50.950;11.762;2022-07-29T07:26:46;98356.00;;;19.01;100.00
17505;BME280;8870;50.950;11.762;2022-07-29T07:31:51;98345.81;;;19.22;100.00
17505;BME280;8870;50.950;11.762;2022-07-29T07:37:02;98338.47;;;19.48;100.00
17505;BME280;8870;50.950;11.762;2022-07-29T07:42:10;98343.13;;;19.73;98.30
17505;BME280;8870;50.950;11.762;2022-07-29T07:47:15;98337.28;;;19.94;95.41
17505;BME280;8870;50.950;11.762;2022-07-29T07:52:23;98339.63;;;20.16;92.70
17505;BME280;8870;50.950;11.762;2022-07-29T07:57:31;98330.38;;;20.36;92.17
17505;BME280;8870;50.950;11.762;2022-07-29T08:02:36;98329.69;;;20.59;87.67
17505;BME280;8870;50.950;11.762;2022-07-29T08:07:41;98323.63;;;20.75;85.01
17505;BME280;8870;50.950;11.762;2022-07-29T08:12:49;98325.50;;;20.93;83.23
17505;BME280;8870;50.950;11.762;2022-07-29T08:17:54;98322.59;;;21.19;79.17
17505;BME280;8870;50.950;11.762;2022-07-29T08:22:59;98323.19;;;21.39;79.13
17505;BME280;8870;50.950;11.762;2022-07-29T08:28:08;98323.78;;;21.53;76.89
17505;BME280;8870;50.950;11.762;2022-07-29T08:33:13;98323.63;;;21.67;77.57
17505;BME280;8870;50.950;11.762;2022-07-29T08:38:18;98330.16;;;21.78;77.79
17505;BME280;8870;50.950;11.762;2022-07-29T08:43:27;98328.88;;;21.92;75.02
17505;BME280;8870;50.950;11.762;2022-07-29T08:48:32;98334.38;;;22.04;75.80
17505;BME280;8870;50.950;11.762;2022-07-29T08:53:41;98336.00;;;22.29;72.82
17505;BME280;8870;50.950;11.762;2022-07-29T08:58:50;98334.38;;;22.52;71.23
17505;BME280;8870;50.950;11.762;2022-07-29T09:03:56;98332.41;;;22.64;68.25
17505;BME280;8870;50.950;11.762;2022-07-29T09:09:04;98331.19;;;22.84;67.22
17505;BME280;8870;50.950;11.762;2022-07-29T09:14:12;98321.25;;;23.12;65.62
17505;BME280;8870;50.950;11.762;2022-07-29T09:19:22;98317.03;;;23.50;63.75
17505;BME280;8870;50.950;11.762;2022-07-29T09:24:37;98316.06;;;23.90;60.65
17505;BME280;8870;50.950;11.762;2022-07-29T09:29:45;98305.88;;;24.08;58.76
17505;BME280;8870;50.950;11.762;2022-07-29T09:34:50;98302.00;;;24.26;58.43
17505;BME280;8870;50.950;11.762;2022-07-29T09:40:00;98294.28;;;24.45;55.92
17505;BME280;8870;50.950;11.762;2022-07-29T09:45:29;98294.22;;;24.62;54.56
17505;BME280;8870;50.950;11.762;2022-07-29T09:50:38;98292.72;;;24.71;53.43
17505;BME280;8870;50.950;11.762;2022-07-29T09:55:48;98288.22;;;24.87;52.38
17505;BME280;8870;50.950;11.762;2022-07-29T10:00:56;98286.31;;;25.15;50.21
17505;BME280;8870;50.950;11.762;2022-07-29T10:06:06;98277.69;;;25.34;47.69
17505;BME280;8870;50.950;11.762;2022-07-29T10:11:16;98269.63;;;25.60;47.87
17505;BME280;8870;50.950;11.762;2022-07-29T10:16:24;98278.91;;;25.81;45.71
17505;BME280;8870;50.950;11.762;2022-07-29T10:21:34;98278.34;;;26.17;46.13
17505;BME280;8870;50.950;11.762;2022-07-29T10:26:41;98266.38;;;26.54;44.14
17505;BME280;8870;50.950;11.762;2022-07-29T10:32:02;98269.88;;;26.97;42.43
17505;BME280;8870;50.950;11.762;2022-07-29T10:37:16;98261.06;;;27.26;43.59
17505;BME280;8870;50.950;11.762;2022-07-29T10:42:25;98254.16;;;27.34;43.39
17505;BME280;8870;50.950;11.762;2022-07-29T10:47:37;98249.19;;;27.36;40.96
17505;BME280;8870;50.950;11.762;2022-07-29T10:52:53;98242.25;;;27.38;42.43
17505;BME280;8870;50.950;11.762;2022-07-29T10:58:15;98240.59;;;27.37;41.79
17505;BME280;8870;50.950;11.762;2022-07-29T11:03:46;98235.06;;;27.27;42.60
17505;BME280;8870;50.950;11.762;2022-07-29T11:09:15;98242.00;;;27.56;42.80
17505;BME280;8870;50.950;11.762;2022-07-29T11:14:55;98232.31;;;27.74;42.24
17505;BME280;8870;50.950;11.762;2022-07-29T11:25:44;98220.59;;;28.23;42.73
17505;BME280;8870;50.950;11.762;2022-07-29T11:30:53;98233.28;;;28.35;43.09
17505;BME280;8870;50.950;11.762;2022-07-29T11:36:09;98216.38;;;28.36;41.33
17505;BME280;8870;50.950;11.762;2022-07-29T11:41:26;98230.25;;;28.26;41.54
17505;BME280;8870;50.950;11.762;2022-07-29T11:46:46;98229.41;;;28.30;41.42
17505;BME280;8870;50.950;11.762;2022-07-29T11:51:52;98222.97;;;28.51;42.53
17505;BME280;8870;50.950;11.762;2022-07-29T11:57:01;98223.97;;;28.75;41.71
17505;BME280;8870;50.950;11.762;2022-07-29T12:02:06;98222.25;;;28.85;41.71
17505;BME280;8870;50.950;11.762;2022-07-29T12:07:33;98218.22;;;29.06;41.64
17505;BME280;8870;50.950;11.762;2022-07-29T12:12:41;98215.91;;;29.19;41.27
17505;BME280;8870;50.950;11.762;2022-07-29T12:17:47;98214.38;;;29.02;40.92
17505;BME280;8870;50.950;11.762;2022-07-29T12:22:55;98201.75;;;28.25;41.38
17505;BME280;8870;50.950;11.762;2022-07-29T12:28:04;98208.03;;;28.41;42.17
17505;BME280;8870;50.950;11.762;2022-07-29T12:33:20;98209.81;;;28.17;42.12
17505;BME280;8870;50.950;11.762;2022-07-29T12:38:25;98206.78;;;28.03;42.80
17505;BME280;8870;50.950;11.762;2022-07-29T12:43:32;98203.47;;;28.01;42.95
17505;BME280;8870;50.950;11.762;2022-07-29T12:48:39;98207.09;;;27.86;43.12
17505;BME280;8870;50.950;11.762;2022-07-29T12:54:04;98198.50;;;27.87;43.12
17505;BME280;8870;50.950;11.762;2022-07-29T12:59:17;98198.50;;;27.92;43.69
17505;BME280;8870;50.950;11.762;2022-07-29T13:04:26;98204.28;;;28.01;43.87
17505;BME280;8870;50.950;11.762;2022-07-29T13:09:38;98195.41;;;28.14;43.72
17505;BME280;8870;50.950;11.762;2022-07-29T13:14:47;98190.97;;;28.13;43.29
17505;BME280;8870;50.950;11.762;2022-07-29T13:20:04;98194.84;;;28.12;43.88
17505;BME280;8870;50.950;11.762;2022-07-29T13:25:11;98190.19;;;27.92;43.76
17505;BME280;8870;50.950;11.762;2022-07-29T13:30:18;98194.38;;;27.84;44.17
17505;BME280;8870;50.950;11.762;2022-07-29T13:35:23;98185.00;;;27.75;44.72
17505;BME280;8870;50.950;11.762;2022-07-29T13:40:31;98186.13;;;27.59;44.81
17505;BME280;8870;50.950;11.762;2022-07-29T13:45:40;98175.34;;;27.52;44.74
17505;BME280;8870;50.950;11.762;2022-07-29T13:50:45;98175.31;;;27.42;45.21
17505;BME280;8870;50.950;11.762;2022-07-29T13:55:50;98189.16;;;27.42;45.87
17505;BME280;8870;50.950;11.762;2022-07-29T14:00:59;98199.09;;;27.01;52.61
17505;BME280;8870;50.950;11.762;2022-07-29T14:06:04;98188.84;;;26.86;56.00
17505;BME280;8870;50.950;11.762;2022-07-29T14:11:09;98190.50;;;26.87;58.54
17505;BME280;8870;50.950;11.762;2022-07-29T14:16:17;98184.38;;;26.75;60.73
17505;BME280;8870;50.950;11.762;2022-07-29T14:21:22;98188.00;;;26.81;62.64
17505;BME280;8870;50.950;11.762;2022-07-29T14:26:27;98187.94;;;26.75;63.63
17505;BME280;8870;50.950;11.762;2022-07-29T14:31:35;98193.22;;;26.77;65.66
17505;BME280;8870;50.950;11.762;2022-07-29T14:36:41;98189.63;;;26.76;66.76
17505;BME280;8870;50.950;11.762;2022-07-29T14:41:46;98191.84;;;26.74;67.67
17505;BME280;8870;50.950;11.762;2022-07-29T14:46:53;98192.72;;;26.90;70.20
17505;BME280;8870;50.950;11.762;2022-07-29T14:51:58;98195.78;;;27.20;67.53
17505;BME280;8870;50.950;11.762;2022-07-29T14:57:03;98196.34;;;27.48;64.23
17505;BME280;8870;50.950;11.762;2022-07-29T15:02:11;98194.13;;;27.65;61.92
17505;BME280;8870;50.950;11.762;2022-07-29T15:07:16;98187.50;;;27.56;61.36
17505;BME280;8870;50.950;11.762;2022-07-29T15:12:21;98179.22;;;27.56;60.79
17505;BME280;8870;50.950;11.762;2022-07-29T15:17:29;98173.38;;;27.52;60.31
17505;BME280;8870;50.950;11.762;2022-07-29T15:22:34;98170.88;;;27.66;60.80
17505;BME280;8870;50.950;11.762;2022-07-29T15:27:40;98154.13;;;28.18;59.21
17505;BME280;8870;50.950;11.762;2022-07-29T15:32:56;98151.34;;;28.79;56.60
17505;BME280;8870;50.950;11.762;2022-07-29T15:38:01;98150.75;;;29.16;54.95
17505;BME280;8870;50.950;11.762;2022-07-29T15:43:06;98144.75;;;29.68;52.59
17505;BME280;8870;50.950;11.762;2022-07-29T15:48:14;98138.06;;;29.98;50.96
17505;BME280;8870;50.950;11.762;2022-07-29T15:53:19;98140.34;;;30.16;50.72
17505;BME280;8870;50.950;11.762;2022-07-29T15:58:24;98135.47;;;30.26;49.55
17505;BME280;8870;50.950;11.762;2022-07-29T16:03:31;98137.44;;;30.26;48.45
17505;BME280;8870;50.950;11.762;2022-07-29T16:08:37;98134.88;;;30.29;47.70
17505;BME280;8870;50.950;11.762;2022-07-29T16:13:42;98128.09;;;30.36;46.89
17505;BME280;8870;50.950;11.762;2022-07-29T16:18:49;98130.50;;;30.42;45.57
17505;BME280;8870;50.950;11.762;2022-07-29T16:23:54;98139.22;;;30.60;45.07
17505;BME280;8870;50.950;11.762;2022-07-29T16:28:59;98136.16;;;30.75;44.49
17505;BME280;8870;50.950;11.762;2022-07-29T16:34:08;98137.72;;;30.68;43.79
17505;BME280;8870;50.950;11.762;2022-07-29T16:39:15;98138.78;;;30.48;44.42
17505;BME280;8870;50.950;11.762;2022-07-29T16:44:22;98137.97;;;30.28;44.43
17505;BME280;8870;50.950;11.762;2022-07-29T16:49:31;98138.81;;;30.04;45.08
17505;BME280;8870;50.950;11.762;2022-07-29T16:54:36;98146.88;;;29.76;45.28
17505;BME280;8870;50.950;11.762;2022-07-29T16:59:42;98149.38;;;29.48;45.75
17505;BME280;8870;50.950;11.762;2022-07-29T17:04:49;98143.22;;;29.22;46.53
17505;BME280;8870;50.950;11.762;2022-07-29T17:09:54;98134.31;;;28.90;47.21
17505;BME280;8870;50.950;11.762;2022-07-29T17:15:07;98140.31;;;28.63;47.88
17505;BME280;8870;50.950;11.762;2022-07-29T17:20:15;98133.78;;;28.43;47.65
17505;BME280;8870;50.950;11.762;2022-07-29T17:25:20;98133.94;;;28.12;48.69
17505;BME280;8870;50.950;11.762;2022-07-29T17:30:25;98136.47;;;27.93;49.59
17505;BME280;8870;50.950;11.762;2022-07-29T17:35:33;98137.66;;;27.77;50.75
17505;BME280;8870;50.950;11.762;2022-07-29T17:40:50;98126.63;;;27.56;51.41
17505;BME280;8870;50.950;11.762;2022-07-29T17:45:56;98121.66;;;27.43;52.41
17505;BME280;8870;50.950;11.762;2022-07-29T17:51:03;98118.34;;;27.25;53.43
17505;BME280;8870;50.950;11.762;2022-07-29T17:56:12;98120.59;;;27.07;53.80
17505;BME280;8870;50.950;11.762;2022-07-29T18:01:20;98122.22;;;26.88;55.21
17505;BME280;8870;50.950;11.762;2022-07-29T18:06:29;98129.66;;;26.67;55.69
17505;BME280;8870;50.950;11.762;2022-07-29T18:11:35;98137.91;;;26.46;56.92
17505;BME280;8870;50.950;11.762;2022-07-29T18:16:45;98125.97;;;26.25;57.20
17505;BME280;8870;50.950;11.762;2022-07-29T18:21:52;98135.31;;;26.13;58.45
17505;BME280;8870;50.950;11.762;2022-07-29T18:27:06;98134.13;;;25.99;59.88
17505;BME280;8870;50.950;11.762;2022-07-29T18:32:11;98137.13;;;25.87;61.83
17505;BME280;8870;50.950;11.762;2022-07-29T18:37:18;98147.78;;;25.73;62.98
17505;BME280;8870;50.950;11.762;2022-07-29T18:42:43;98146.88;;;25.57;64.21
17505;BME280;8870;50.950;11.762;2022-07-29T18:47:48;98144.88;;;25.47;65.04
17505;BME280;8870;50.950;11.762;2022-07-29T18:52:56;98148.63;;;25.36;67.02
17505;BME280;8870;50.950;11.762;2022-07-29T18:58:04;98148.25;;;25.22;68.89
17505;BME280;8870;50.950;11.762;2022-07-29T19:03:09;98155.31;;;25.07;69.41
17505;BME280;8870;50.950;11.762;2022-07-29T19:08:17;98152.97;;;24.94;71.32
17505;BME280;8870;50.950;11.762;2022-07-29T19:13:22;98157.78;;;24.76;72.21
17505;BME280;8870;50.950;11.762;2022-07-29T19:18:27;98168.03;;;24.59;74.43
17505;BME280;8870;50.950;11.762;2022-07-29T19:23:35;98169.50;;;24.39;76.94
17505;BME280;8870;50.950;11.762;2022-07-29T19:29:00;98174.81;;;24.24;78.95
17505;BME280;8870;50.950;11.762;2022-07-29T19:34:05;98176.53;;;24.08;81.39
17505;BME280;8870;50.950;11.762;2022-07-29T19:39:13;98178.81;;;23.94;85.55
17505;BME280;8870;50.950;11.762;2022-07-29T19:44:35;98180.53;;;23.78;86.75
17505;BME280;8870;50.950;11.762;2022-07-29T19:49:40;98191.25;;;23.57;89.92
17505;BME280;8870;50.950;11.762;2022-07-29T19:54:48;98194.16;;;23.50;93.74
17505;BME280;8870;50.950;11.762;2022-07-29T19:59:54;98193.47;;;23.43;93.44
17505;BME280;8870;50.950;11.762;2022-07-29T20:04:59;98197.41;;;23.30;100.00
17505;BME280;8870;50.950;11.762;2022-07-29T20:10:08;98204.78;;;23.13;100.00
17505;BME280;8870;50.950;11.762;2022-07-29T20:15:13;98208.59;;;22.94;100.00
17505;BME280;8870;50.950;11.762;2022-07-29T20:20:18;98212.97;;;22.78;100.00
17505;BME280;8870;50.950;11.762;2022-07-29T20:25:27;98230.81;;;22.64;100.00
17505;BME280;8870;50.950;11.762;2022-07-29T20:30:32;98240.66;;;22.48;100.00
17505;BME280;8870;50.950;11.762;2022-07-29T20:35:39;98245.50;;;22.17;100.00
17505;BME280;8870;50.950;11.762;2022-07-29T20:40:47;98257.69;;;21.85;100.00
17505;BME280;8870;50.950;11.762;2022-07-29T20:45:53;98267.56;;;21.63;100.00
17505;BME280;8870;50.950;11.762;2022-07-29T20:50:59;98283.59;;;21.47;100.00
17505;BME280;8870;50.950;11.762;2022-07-29T20:56:06;98301.34;;;21.33;100.00
17505;BME280;8870;50.950;11.762;2022-07-29T21:01:13;98303.34;;;21.25;100.00
17505;BME280;8870;50.950;11.762;2022-07-29T21:06:18;98298.19;;;21.17;100.00
17505;BME280;8870;50.950;11.762;2022-07-29T21:11:26;98302.34;;;21.08;100.00
17505;BME280;8870;50.950;11.762;2022-07-29T21:16:45;98308.13;;;21.00;100.00
17505;BME280;8870;50.950;11.762;2022-07-29T21:21:51;98308.34;;;20.86;100.00
17505;BME280;8870;50.950;11.762;2022-07-29T21:26:59;98306.72;;;20.60;100.00
17505;BME280;8870;50.950;11.762;2022-07-29T21:32:22;98298.69;;;20.28;100.00
17505;BME280;8870;50.950;11.762;2022-07-29T21:37:31;98301.31;;;19.97;100.00
17505;BME280;8870;50.950;11.762;2022-07-29T21:42:39;98305.25;;;19.76;100.00
17505;BME280;8870;50.950;11.762;2022-07-29T21:47:46;98310.00;;;19.62;100.00
17505;BME280;8870;50.950;11.762;2022-07-29T21:52:51;98319.63;;;19.39;100.00
17505;BME280;8870;50.950;11.762;2022-07-29T21:57:59;98325.41;;;19.24;100.00
17505;BME280;8870;50.950;11.762;2022-07-29T22:03:04;98331.97;;;19.17;100.00
17505;BME280;8870;50.950;11.762;2022-07-29T22:08:09;98347.41;;;18.98;100.00
17505;BME280;8870;50.950;11.762;2022-07-29T22:13:17;98350.38;;;18.96;100.00
17505;BME280;8870;50.950;11.762;2022-07-29T22:18:22;98343.63;;;18.92;100.00
17505;BME280;8870;50.950;11.762;2022-07-29T22:23:28;98336.31;;;18.86;100.00
17505;BME280;8870;50.950;11.762;2022-07-29T22:28:36;98326.06;;;18.81;100.00
17505;BME280;8870;50.950;11.762;2022-07-29T22:33:41;98326.91;;;18.75;100.00
17505;BME280;8870;50.950;11.762;2022-07-29T22:38:48;98318.97;;;18.67;100.00
17505;BME280;8870;50.950;11.762;2022-07-29T22:43:56;98317.72;;;18.62;100.00
17505;BME280;8870;50.950;11.762;2022-07-29T22:49:01;98316.44;;;18.65;100.00
17505;BME280;8870;50.950;11.762;2022-07-29T22:54:06;98307.22;;;18.59;100.00
17505;BME280;8870;50.950;11.762;2022-07-29T22:59:14;98300.31;;;18.57;100.00
17505;BME280;8870;50.950;11.762;2022-07-29T23:04:19;98309.78;;;18.54;100.00
17505;BME280;8870;50.950;11.762;2022-07-29T23:09:26;98305.59;;;18.52;100.00
17505;BME280;8870;50.950;11.762;2022-07-29T23:14:34;98312.94;;;18.51;100.00
17505;BME280;8870;50.950;11.762;2022-07-29T23:19:38;98300.38;;;18.43;100.00
17505;BME280;8870;50.950;11.762;2022-07-29T23:24:45;98308.16;;;18.33;100.00
17505;BME280;8870;50.950;11.762;2022-07-29T23:29:53;98294.75;;;18.38;100.00
17505;BME280;8870;50.950;11.762;2022-07-29T23:34:58;98298.28;;;18.39;100.00
17505;BME280;8870;50.950;11.762;2022-07-29T23:40:07;98288.44;;;18.38;100.00
17505;BME280;8870;50.950;11.762;2022-07-29T23:45:18;98276.88;;;18.42;100.00
17505;BME280;8870;50.950;11.762;2022-07-29T23:50:40;98272.47;;;18.41;100.00
17505;BME280;8870;50.950;11.762;2022-07-29T23:55:46;98273.16;;;18.23;100.00
